createdAt,value
2022-11-26T00:01:16.458Z,8.47
2022-11-26T00:03:45.344Z,8.27
2022-11-26T00:06:26.476Z,7.43
2022-11-26T00:08:56.202Z,9.20
2022-11-26T00:11:24.459Z,8.20
2022-11-26T00:13:52.823Z,9.07
2022-11-26T00:16:21.141Z,10.70
2022-11-26T00:18:49.331Z,17.43
2022-11-26T00:21:21.519Z,13.07
2022-11-26T00:23:49.895Z,8.53
2022-11-26T00:26:22.252Z,19.60
2022-11-26T00:28:52.773Z,15.73
2022-11-26T00:31:21.334Z,12.43
2022-11-26T00:33:49.738Z,11.70
2022-11-26T00:36:22.019Z,9.50
2022-11-26T00:38:54.529Z,11.07
2022-11-26T00:41:26.538Z,13.77
2022-11-26T00:43:54.806Z,8.93
2022-11-26T00:46:23.767Z,8.63
2022-11-26T00:48:52.295Z,10.37
2022-11-26T00:51:22.753Z,7.53
2022-11-26T00:53:51.873Z,12.43
2022-11-26T00:56:21.511Z,7.90
2022-11-26T00:58:51.708Z,11.20
2022-11-26T01:01:25.579Z,9.87
2022-11-26T01:03:54.021Z,8.53
2022-11-26T01:06:26.234Z,9.00
2022-11-26T01:08:54.365Z,10.50
2022-11-26T01:11:24.413Z,10.70
2022-11-26T01:13:55.933Z,7.40
2022-11-26T01:16:26.241Z,14.17
2022-11-26T01:18:56.533Z,8.20
2022-11-26T01:21:26.482Z,11.70
2022-11-26T01:23:55.193Z,8.37
2022-11-26T01:26:27.529Z,15.07
2022-11-26T01:28:57.277Z,6.90
2022-11-26T01:31:28.393Z,6.20
2022-11-26T01:33:57.281Z,13.17
2022-11-26T01:36:29.189Z,10.20
2022-11-26T01:38:58.719Z,8.87
2022-11-26T01:41:46.186Z,9.00
2022-11-26T01:44:22.333Z,6.97
2022-11-26T01:46:51.964Z,9.93
2022-11-26T01:49:23.231Z,7.00
2022-11-26T01:51:57.503Z,6.63
2022-11-26T01:54:26.073Z,10.13
2022-11-26T01:56:57.306Z,8.00
2022-11-26T01:59:30.667Z,8.40
2022-11-26T02:02:00.796Z,9.63
2022-11-26T02:04:34.245Z,6.10
2022-11-26T02:07:02.974Z,11.77
2022-11-26T02:09:31.950Z,9.40
2022-11-26T02:12:00.338Z,6.30
2022-11-26T02:14:33.618Z,8.93
2022-11-26T02:17:16.233Z,6.77
2022-11-26T02:20:19.962Z,8.13
2022-11-26T02:23:07.418Z,10.43
2022-11-26T02:25:48.992Z,15.13
2022-11-26T02:28:29.275Z,7.20
2022-11-26T02:31:08.092Z,5.80
2022-11-26T02:33:42.201Z,5.23
2022-11-26T02:36:15.819Z,8.30
2022-11-26T02:38:44.080Z,6.37
2022-11-26T02:41:12.480Z,7.70
2022-11-26T02:43:40.885Z,6.33
2022-11-26T02:46:13.742Z,8.03
2022-11-26T02:48:47.366Z,6.73
2022-11-26T02:51:21.857Z,9.60
2022-11-26T02:53:52.186Z,8.67
2022-11-26T02:56:23.498Z,6.30
2022-11-26T02:58:53.383Z,4.30
2022-11-26T03:01:29.531Z,11.40
2022-11-26T03:04:01.098Z,5.87
2022-11-26T03:06:33.965Z,7.57
2022-11-26T03:09:02.531Z,10.80
2022-11-26T03:11:30.845Z,7.50
2022-11-26T03:13:59.217Z,6.57
2022-11-26T03:16:29.633Z,12.57
2022-11-26T03:18:58.166Z,6.03
2022-11-26T03:21:26.398Z,13.00
2022-11-26T03:23:54.660Z,7.80
2022-11-26T03:26:22.937Z,8.73
2022-11-26T03:28:52.192Z,5.50
2022-11-26T03:31:20.536Z,12.13
2022-11-26T03:33:50.291Z,13.47
2022-11-26T03:36:18.558Z,10.90
2022-11-26T03:38:46.808Z,10.97
2022-11-26T03:41:15.039Z,18.53
2022-11-26T03:43:43.195Z,6.93
2022-11-26T03:46:11.463Z,9.50
2022-11-26T03:48:39.649Z,6.83
2022-11-26T03:51:09.547Z,7.90
2022-11-26T03:53:37.758Z,7.60
2022-11-26T03:56:06.665Z,7.83
2022-11-26T03:58:35.237Z,7.30
2022-11-26T04:01:09.003Z,7.43
2022-11-26T04:03:37.411Z,11.37
2022-11-26T04:06:06.006Z,12.70
2022-11-26T04:08:36.011Z,6.77
2022-11-26T04:11:04.379Z,7.00
2022-11-26T04:13:32.850Z,8.40
2022-11-26T04:16:01.529Z,7.40
2022-11-26T04:18:29.693Z,11.73
2022-11-26T04:20:57.886Z,7.77
2022-11-26T04:23:26.254Z,9.93
2022-11-26T04:25:55.753Z,7.03
2022-11-26T04:28:24.218Z,5.80
2022-11-26T04:30:52.486Z,7.93
2022-11-26T04:33:21.075Z,7.07
2022-11-26T04:35:51.016Z,8.83
2022-11-26T04:38:24.212Z,11.03
2022-11-26T04:40:55.517Z,10.33
2022-11-26T04:43:23.866Z,8.60
2022-11-26T04:45:52.059Z,6.60
2022-11-26T04:48:20.702Z,6.07
2022-11-26T04:50:50.592Z,9.20
2022-11-26T04:53:21.927Z,11.90
2022-11-26T04:55:52.128Z,6.50
2022-11-26T04:58:21.872Z,10.90
2022-11-26T05:00:51.506Z,10.00
2022-11-26T05:03:20.243Z,10.83
2022-11-26T05:05:50.127Z,14.33
2022-11-26T05:08:18.482Z,9.83
2022-11-26T05:10:46.699Z,8.77
2022-11-26T05:13:15.162Z,8.93
2022-11-26T05:15:44.761Z,9.63
2022-11-26T05:18:13.042Z,6.77
2022-11-26T05:20:41.369Z,9.53
2022-11-26T05:23:09.562Z,9.10
2022-11-26T05:25:37.731Z,7.00
2022-11-26T05:28:06.409Z,14.83
2022-11-26T05:30:34.767Z,11.60
2022-11-26T05:33:04.354Z,6.10
2022-11-26T05:35:32.845Z,6.87
2022-11-26T05:38:01.201Z,7.90
2022-11-26T05:40:29.418Z,6.53
2022-11-26T05:42:57.553Z,7.27
2022-11-26T05:45:25.726Z,6.53
2022-11-26T05:47:54.141Z,6.73
2022-11-26T05:50:23.863Z,10.13
2022-11-26T05:52:54.508Z,4.83
2022-11-26T05:55:22.642Z,8.37
2022-11-26T05:57:50.934Z,8.17
2022-11-26T06:00:20.484Z,9.97
2022-11-26T06:02:48.694Z,10.13
2022-11-26T06:05:17.070Z,7.83
2022-11-26T06:07:46.730Z,7.10
2022-11-26T06:10:15.200Z,10.17
2022-11-26T06:12:43.851Z,11.40
2022-11-26T06:15:13.015Z,8.13
2022-11-26T06:17:41.228Z,5.03
2022-11-26T06:20:10.255Z,10.00
2022-11-26T06:22:39.217Z,6.77
2022-11-26T06:25:12.030Z,6.63
2022-11-26T06:27:40.639Z,6.60
2022-11-26T06:30:11.327Z,12.20
2022-11-26T06:32:39.671Z,9.47
2022-11-26T06:35:08.264Z,9.53
2022-11-26T06:37:36.464Z,10.90
2022-11-26T06:40:04.954Z,8.47
2022-11-26T06:42:34.791Z,7.17
2022-11-26T06:45:03.147Z,4.30
2022-11-26T06:47:31.505Z,6.27
2022-11-26T06:49:59.662Z,6.97
2022-11-26T06:52:27.857Z,8.30
2022-11-26T06:54:56.290Z,12.77
2022-11-26T06:57:24.461Z,7.33
2022-11-26T06:59:54.481Z,9.67
2022-11-26T07:02:22.703Z,12.57
2022-11-26T07:04:50.987Z,12.13
2022-11-26T07:07:19.327Z,8.47
2022-11-26T07:09:47.783Z,14.47
2022-11-26T07:12:15.962Z,10.60
2022-11-26T07:14:44.769Z,12.53
2022-11-26T07:17:14.327Z,14.27
2022-11-26T07:19:42.775Z,12.63
2022-11-26T07:22:11.378Z,8.17
2022-11-26T07:24:39.674Z,8.97
2022-11-26T07:27:09.079Z,6.40
2022-11-26T07:29:37.291Z,7.60
2022-11-26T07:32:05.744Z,11.57
2022-11-26T07:34:35.601Z,15.53
2022-11-26T07:37:03.906Z,12.90
2022-11-26T07:39:32.191Z,9.40
2022-11-26T07:42:00.346Z,9.63
2022-11-26T07:44:28.514Z,7.40
2022-11-26T07:46:56.801Z,7.07
2022-11-26T07:49:25.139Z,9.80
2022-11-26T07:51:54.746Z,15.80
2022-11-26T07:54:23.097Z,13.63
2022-11-26T07:56:51.262Z,17.57
2022-11-26T07:59:19.419Z,18.27
2022-11-26T08:01:48.214Z,17.57
2022-11-26T08:04:16.361Z,15.23
2022-11-26T08:06:44.549Z,13.30
2022-11-26T08:09:14.209Z,16.83
2022-11-26T08:11:42.504Z,11.43
2022-11-26T08:14:12.566Z,13.57
2022-11-26T08:16:41.386Z,10.87
2022-11-26T08:19:12.995Z,8.57
2022-11-26T08:21:41.544Z,10.90
2022-11-26T08:24:14.309Z,14.73
2022-11-26T08:26:44.431Z,10.97
2022-11-26T08:29:13.119Z,11.97
2022-11-26T08:31:45.715Z,11.13
2022-11-26T08:34:16.278Z,11.47
2022-11-26T08:36:45.285Z,7.20
2022-11-26T08:39:17.177Z,8.10
2022-11-26T08:41:51.634Z,12.93
2022-11-26T08:44:21.308Z,12.77
2022-11-26T08:46:50.007Z,14.70
2022-11-26T08:49:18.466Z,16.37
2022-11-26T08:51:46.724Z,17.60
2022-11-26T08:54:16.282Z,9.87
2022-11-26T08:56:44.545Z,18.33
2022-11-26T08:59:12.693Z,18.10
2022-11-26T09:01:41.014Z,14.40
2022-11-26T09:04:09.245Z,31.10
2022-11-26T09:06:37.816Z,19.37
2022-11-26T09:09:13.988Z,18.40
2022-11-26T09:11:47.351Z,13.77
2022-11-26T09:14:17.062Z,17.10
2022-11-26T09:16:45.526Z,17.70
2022-11-26T09:19:16.131Z,13.13
2022-11-26T09:21:44.693Z,17.13
2022-11-26T09:24:13.417Z,15.73
2022-11-26T09:26:43.430Z,20.00
2022-11-26T09:29:14.109Z,17.73
2022-11-26T09:32:00.682Z,13.10
2022-11-26T09:34:30.861Z,20.40
2022-11-26T09:36:59.070Z,13.70
2022-11-26T09:39:27.476Z,15.50
2022-11-26T09:42:05.137Z,16.10
2022-11-26T09:44:58.346Z,12.93
2022-11-26T09:47:28.989Z,22.10
2022-11-26T09:50:04.492Z,19.47
2022-11-26T09:52:40.366Z,12.40
2022-11-26T09:55:16.365Z,13.83
2022-11-26T09:57:53.045Z,18.93
2022-11-26T10:00:26.549Z,14.20
2022-11-26T10:02:55.858Z,13.17
2022-11-26T10:05:28.966Z,15.70
2022-11-26T10:08:06.739Z,17.00
2022-11-26T10:10:44.661Z,12.10
2022-11-26T10:13:23.970Z,17.17
2022-11-26T10:16:01.116Z,15.77
2022-11-26T10:18:38.754Z,18.13
2022-11-26T10:21:32.515Z,18.53
2022-11-26T10:24:18.546Z,15.03
2022-11-26T10:26:48.373Z,17.53
2022-11-26T10:29:24.399Z,16.33
2022-11-26T10:31:57.733Z,12.10
2022-11-26T10:34:37.446Z,13.00
2022-11-26T10:37:07.818Z,13.60
2022-11-26T10:39:36.226Z,11.60
2022-11-26T10:42:06.018Z,9.10
2022-11-26T10:44:41.546Z,8.80
2022-11-26T10:47:28.323Z,16.57
2022-11-26T10:50:39.550Z,9.87
2022-11-26T10:53:06.853Z,7.93
2022-11-26T10:55:39.271Z,14.37
2022-11-26T10:58:16.179Z,11.20
2022-11-26T11:00:55.579Z,11.57
2022-11-26T11:03:51.897Z,7.33
2022-11-26T11:06:28.210Z,11.10
2022-11-26T11:08:56.626Z,13.70
2022-11-26T11:11:27.895Z,15.17
2022-11-26T11:13:56.533Z,11.90
2022-11-26T11:16:30.663Z,43.10
2022-11-26T11:19:01.199Z,4.90
2022-11-26T11:21:34.729Z,8.03
2022-11-26T11:24:13.815Z,4.60
2022-11-26T11:26:44.637Z,13.17
2022-11-26T11:29:32.943Z,8.83
2022-11-26T11:32:05.604Z,5.20
2022-11-26T11:34:35.703Z,14.50
2022-11-26T11:37:05.626Z,10.87
2022-11-26T11:39:35.249Z,14.23
2022-11-26T11:42:07.691Z,12.90
2022-11-26T11:44:40.815Z,13.67
2022-11-26T11:47:37.745Z,6.30
2022-11-26T11:50:21.825Z,12.00
2022-11-26T11:53:02.165Z,6.70
2022-11-26T11:55:48.349Z,16.27
2022-11-26T11:58:41.606Z,10.40
2022-11-26T12:01:18.176Z,9.20
2022-11-26T12:04:15.067Z,9.73
2022-11-26T12:07:04.794Z,5.40
2022-11-26T12:09:38.301Z,7.60
2022-11-26T12:12:23.356Z,7.40
2022-11-26T12:14:55.293Z,12.27
2022-11-26T12:17:33.339Z,6.30
2022-11-26T12:20:15.536Z,12.23
2022-11-26T12:22:49.627Z,9.03
2022-11-26T12:25:23.627Z,9.47
2022-11-26T12:27:57.382Z,17.33
2022-11-26T12:30:32.479Z,16.10
2022-11-26T12:33:06.587Z,6.23
2022-11-26T12:35:40.656Z,7.13
2022-11-26T12:38:16.862Z,10.73
2022-11-26T12:40:49.555Z,6.40
2022-11-26T12:43:21.259Z,7.70
2022-11-26T12:45:55.746Z,7.47
2022-11-26T12:48:34.671Z,17.33
2022-11-26T12:51:17.889Z,7.43
2022-11-26T12:53:53.650Z,19.13
2022-11-26T12:56:27.706Z,9.77
2022-11-26T12:59:03.093Z,10.50
2022-11-26T13:01:33.666Z,8.37
2022-11-26T13:04:35.564Z,9.83
2022-11-26T13:07:22.020Z,11.30
2022-11-26T13:10:01.814Z,13.83
2022-11-26T13:12:45.514Z,12.40
2022-11-26T13:15:23.846Z,15.60
2022-11-26T13:17:53.133Z,13.10
2022-11-26T13:21:02.475Z,11.33
2022-11-26T13:23:42.104Z,12.30
2022-11-26T13:26:25.301Z,6.03
2022-11-26T13:29:10.598Z,9.90
2022-11-26T13:31:54.301Z,11.33
2022-11-26T13:34:53.988Z,8.60
2022-11-26T13:37:35.739Z,9.67
2022-11-26T13:40:29.528Z,10.37
2022-11-26T13:43:17.416Z,7.10
2022-11-26T13:46:06.036Z,13.17
2022-11-26T13:48:41.832Z,11.73
2022-11-26T13:51:17.754Z,14.97
2022-11-26T13:53:52.524Z,10.57
2022-11-26T13:56:26.361Z,8.93
2022-11-26T13:58:57.382Z,9.80
2022-11-26T14:01:36.760Z,9.27
2022-11-26T14:04:07.868Z,14.87
2022-11-26T14:06:36.557Z,17.43
2022-11-26T14:09:05.983Z,13.93
2022-11-26T14:12:01.491Z,22.87
2022-11-26T14:14:35.615Z,13.47
2022-11-26T14:17:23.454Z,11.13
2022-11-26T14:20:12.276Z,15.73
2022-11-26T14:22:40.533Z,17.90
2022-11-26T14:25:11.781Z,23.87
2022-11-26T14:27:49.614Z,21.60
2022-11-26T14:30:26.214Z,20.80
2022-11-26T14:33:06.695Z,23.00
2022-11-26T14:35:37.005Z,21.13
2022-11-26T14:38:07.148Z,24.57
2022-11-26T14:40:37.315Z,29.73
2022-11-26T14:43:24.792Z,26.07
2022-11-26T14:46:04.138Z,23.33
2022-11-26T14:48:34.602Z,21.57
2022-11-26T14:51:04.757Z,19.53
2022-11-26T14:53:35.273Z,16.87
2022-11-26T14:56:04.862Z,24.17
2022-11-26T14:58:39.580Z,15.77
2022-11-26T15:01:19.165Z,24.03
2022-11-26T15:03:56.675Z,19.00
2022-11-26T15:06:27.587Z,25.17
2022-11-26T15:09:12.746Z,13.50
2022-11-26T15:11:45.805Z,17.47
2022-11-26T15:14:22.154Z,29.50
2022-11-26T15:16:57.468Z,31.60
2022-11-26T15:19:26.929Z,41.83
2022-11-26T15:21:55.362Z,26.77
2022-11-26T15:24:23.686Z,19.83
2022-11-26T15:26:51.979Z,19.77
2022-11-26T15:29:33.739Z,15.00
2022-11-26T15:32:03.021Z,16.50
2022-11-26T15:34:34.075Z,17.07
2022-11-26T15:37:02.258Z,16.60
2022-11-26T15:39:32.487Z,14.67
2022-11-26T15:42:05.764Z,16.33
2022-11-26T15:44:42.206Z,14.70
2022-11-26T15:47:19.591Z,22.50
2022-11-26T15:49:52.081Z,18.97
2022-11-26T15:52:24.222Z,22.50
2022-11-26T15:55:16.357Z,17.70
2022-11-26T15:57:45.517Z,21.03
2022-11-26T16:00:23.510Z,27.53
2022-11-26T16:02:52.703Z,32.97
2022-11-26T16:05:28.764Z,49.60
2022-11-26T16:07:58.599Z,52.07
2022-11-26T16:10:31.210Z,137.37
2022-11-26T16:13:20.579Z,42.73
2022-11-26T16:15:53.189Z,37.97
2022-11-26T16:18:26.410Z,34.40
2022-11-26T16:21:04.163Z,34.50
2022-11-26T16:23:32.828Z,39.20
2022-11-26T16:26:13.631Z,31.93
2022-11-26T16:28:42.004Z,31.53
2022-11-26T16:31:11.907Z,32.23
2022-11-26T16:33:40.619Z,33.47
2022-11-26T16:36:20.959Z,30.37
2022-11-26T16:38:49.951Z,28.87
2022-11-26T16:41:19.950Z,27.03
2022-11-26T16:43:48.806Z,30.77
2022-11-26T16:46:20.113Z,33.67
2022-11-26T16:48:49.138Z,42.57
2022-11-26T16:51:17.903Z,41.03
2022-11-26T16:53:46.105Z,33.17
2022-11-26T16:56:21.301Z,29.10
2022-11-26T16:58:50.421Z,25.60
2022-11-26T17:01:20.591Z,25.40
2022-11-26T17:03:48.954Z,22.87
2022-11-26T17:06:23.953Z,26.53
2022-11-26T17:08:52.309Z,23.93
2022-11-26T17:11:20.396Z,30.07
2022-11-26T17:13:48.587Z,28.87
2022-11-26T17:16:19.886Z,31.97
2022-11-26T17:18:49.019Z,29.60
2022-11-26T17:21:17.755Z,25.03
2022-11-26T17:23:45.983Z,24.67
2022-11-26T17:26:19.558Z,27.80
2022-11-26T17:28:48.288Z,29.73
2022-11-26T17:31:17.079Z,27.43
2022-11-26T17:33:46.695Z,26.13
2022-11-26T17:36:20.142Z,28.30
2022-11-26T17:38:49.270Z,28.20
2022-11-26T17:41:17.875Z,25.50
2022-11-26T17:43:46.000Z,34.13
2022-11-26T17:46:17.177Z,32.13
2022-11-26T17:48:46.994Z,28.20
2022-11-26T17:51:16.031Z,32.63
2022-11-26T17:53:45.065Z,36.90
2022-11-26T17:56:19.283Z,35.40
2022-11-26T17:58:48.768Z,34.70
2022-11-26T18:01:18.268Z,37.33
2022-11-26T18:03:48.628Z,32.87
2022-11-26T18:06:18.448Z,34.57
2022-11-26T18:08:47.631Z,34.30
2022-11-26T18:11:17.230Z,36.77
2022-11-26T18:13:46.282Z,45.70
2022-11-26T18:16:14.472Z,39.17
2022-11-26T18:18:42.811Z,33.57
2022-11-26T18:21:13.584Z,36.67
2022-11-26T18:23:47.719Z,32.30
2022-11-26T18:26:18.831Z,37.17
2022-11-26T18:28:46.909Z,34.83
2022-11-26T18:31:15.300Z,41.40
2022-11-26T18:33:43.570Z,38.00
2022-11-26T18:36:13.394Z,40.07
2022-11-26T18:38:41.800Z,37.83
2022-11-26T18:41:10.326Z,39.47
2022-11-26T18:43:39.887Z,35.00
2022-11-26T18:46:11.227Z,38.10
2022-11-26T18:48:40.212Z,37.67
2022-11-26T18:51:08.356Z,39.20
2022-11-26T18:53:38.089Z,39.03
2022-11-26T18:56:09.264Z,35.70
2022-11-26T18:58:37.497Z,43.13
2022-11-26T19:01:13.720Z,42.13
2022-11-26T19:03:44.012Z,47.63
2022-11-26T19:06:15.103Z,37.83
2022-11-26T19:08:44.966Z,64.10
2022-11-26T19:11:14.965Z,37.73
2022-11-26T19:13:43.605Z,34.10
2022-11-26T19:16:16.715Z,39.13
2022-11-26T19:18:45.782Z,37.50
2022-11-26T19:21:19.776Z,42.33
2022-11-26T19:23:49.949Z,43.07
2022-11-26T19:26:18.729Z,37.37
2022-11-26T19:28:47.777Z,36.60
2022-11-26T19:31:18.298Z,45.43
2022-11-26T19:33:47.630Z,40.23
2022-11-26T19:36:17.956Z,37.80
2022-11-26T19:38:48.005Z,47.83
2022-11-26T19:41:17.471Z,41.53
2022-11-26T19:43:48.595Z,45.03
2022-11-26T19:46:19.573Z,46.80
2022-11-26T19:48:50.002Z,39.67
2022-11-26T19:51:19.737Z,47.00
2022-11-26T19:53:50.640Z,45.03
2022-11-26T19:56:20.062Z,43.50
2022-11-26T19:58:48.692Z,42.63
2022-11-26T20:01:18.250Z,41.33
2022-11-26T20:03:46.651Z,37.90
2022-11-26T20:06:16.952Z,36.43
2022-11-26T20:08:45.841Z,37.27
2022-11-26T20:11:16.825Z,35.57
2022-11-26T20:13:47.382Z,41.03
2022-11-26T20:16:18.051Z,32.93
2022-11-26T20:18:47.305Z,36.93
2022-11-26T20:21:17.329Z,34.73
2022-11-26T20:23:45.752Z,35.63
2022-11-26T20:26:17.678Z,35.10
2022-11-26T20:28:46.564Z,31.93
2022-11-26T20:31:21.971Z,34.07
2022-11-26T20:33:53.052Z,29.53
2022-11-26T20:36:23.234Z,27.40
2022-11-26T20:38:54.157Z,34.13
2022-11-26T20:41:26.291Z,24.00
2022-11-26T20:43:58.982Z,34.07
2022-11-26T20:46:29.045Z,30.30
2022-11-26T20:48:58.108Z,26.70
2022-11-26T20:51:27.149Z,19.87
2022-11-26T20:53:59.844Z,16.50
2022-11-26T20:56:30.056Z,16.70
2022-11-26T20:58:58.229Z,29.33
2022-11-26T21:01:28.405Z,21.00
2022-11-26T21:03:58.797Z,28.00
2022-11-26T21:06:30.335Z,20.97
2022-11-26T21:09:01.438Z,22.73
2022-11-26T21:11:31.665Z,19.27
2022-11-26T21:14:01.676Z,17.90
2022-11-26T21:16:31.392Z,17.17
2022-11-26T21:19:00.426Z,13.20
2022-11-26T21:21:29.887Z,12.60
2022-11-26T21:24:04.680Z,17.53
2022-11-26T21:26:34.381Z,19.10
2022-11-26T21:29:03.471Z,19.93
2022-11-26T21:31:32.514Z,14.50
2022-11-26T21:34:02.345Z,13.77
2022-11-26T21:36:31.805Z,10.37
2022-11-26T21:39:00.653Z,33.40
2022-11-26T21:41:29.408Z,14.97
2022-11-26T21:44:03.241Z,15.80
2022-11-26T21:46:38.217Z,16.90
2022-11-26T21:49:07.262Z,13.83
2022-11-26T21:51:35.744Z,16.33
2022-11-26T21:54:04.150Z,16.03
2022-11-26T21:56:33.036Z,17.63
2022-11-26T21:59:03.228Z,14.73
2022-11-26T22:01:32.666Z,16.33
2022-11-26T22:04:02.677Z,14.40
2022-11-26T22:06:31.277Z,20.33
2022-11-26T22:08:59.647Z,12.87
2022-11-26T22:11:30.345Z,11.47
2022-11-26T22:13:58.666Z,14.97
2022-11-26T22:16:29.568Z,15.40
2022-11-26T22:18:58.903Z,12.87
2022-11-26T22:21:29.206Z,19.70
2022-11-26T22:23:58.438Z,10.80
2022-11-26T22:26:27.413Z,12.43
2022-11-26T22:28:56.405Z,10.63
2022-11-26T22:31:28.772Z,14.30
2022-11-26T22:33:58.279Z,12.43
2022-11-26T22:36:27.173Z,12.50
2022-11-26T22:38:55.895Z,18.70
2022-11-26T22:41:24.189Z,16.50
2022-11-26T22:43:52.553Z,12.50
2022-11-26T22:46:23.086Z,15.17
2022-11-26T22:48:54.264Z,14.93
2022-11-26T22:51:23.788Z,15.60
2022-11-26T22:53:52.841Z,16.30
2022-11-26T22:56:21.573Z,18.20
2022-11-26T22:58:49.979Z,19.57
2022-11-26T23:01:21.589Z,20.37
2022-11-26T23:03:51.258Z,17.53
2022-11-26T23:06:22.866Z,19.23
2022-11-26T23:08:52.236Z,21.30
2022-11-26T23:11:22.343Z,16.87
2022-11-26T23:13:51.664Z,21.97
2022-11-26T23:16:21.856Z,16.90
2022-11-26T23:18:51.560Z,20.70
2022-11-26T23:21:23.222Z,16.87
2022-11-26T23:23:52.547Z,16.93
2022-11-26T23:26:26.852Z,18.20
2022-11-26T23:28:56.123Z,17.50
2022-11-26T23:31:26.236Z,18.10
2022-11-26T23:33:55.010Z,18.77
2022-11-26T23:36:25.921Z,15.50
2022-11-26T23:38:54.161Z,16.03
2022-11-26T23:41:22.920Z,13.30
2022-11-26T23:43:51.790Z,17.03
2022-11-26T23:46:22.849Z,15.13
2022-11-26T23:48:52.323Z,14.27
2022-11-26T23:51:23.495Z,12.50
2022-11-26T23:53:53.872Z,13.63
2022-11-26T23:56:23.851Z,10.87
2022-11-26T23:58:53.672Z,10.10
